aviador You're here:

KAPC Decoded Metar

NAPA in CA, USA
Report Time2017-11-22 20:54:00
UTC Time2017-11-22 21:58:02
Flight Rules vfr VFR
Wind060° at 05 kt
W.Decomp.*RWY 06: 4.8 kt HW 1.3 kt LCW
RWY 36: 3.5 kt HW 3.5 kt RCW
W.Rank060° ranks 35
Current wind is above 060° avg. (4.4)
Visibility9999 m
Phenomena:N/A
Clouds:N/A
Expected CloudBase > 2,400 ft AGL from Temp-Dew spread
CeilingNone
Temp20°C (ISA +5)
Dew Point14°C (69% RH)
AAT19.5°C
QNH1020 hPa
Density Alt617 ft
Elevation43 ft
Report Wrong Elevation
Raw Report
KAPC 222054Z 06005KT 10SM CLR 20/14 A3012 RMK AO2 SLP189 T02000139
58018=

Extra information for KAPC:More info

Metar Taf Metar & Taf Last 4 Metars F.Rules Stats Wind Profile Meteogram Temp Stats Airport Information Weather charts Add Link Nearby VenuesMetar ALERT Operation Metar Decoded Social comments

AIRNAV info for KAPC